sensor_id;sensor_type;location;lat;lon;timestamp;P1;durP1;ratioP1;P2;durP2;ratioP2
19111;SDS011;9688;51.906;8.376;2023-09-08T00:02:26;5.97;;;4.40;;
19111;SDS011;9688;51.906;8.376;2023-09-08T00:05:14;9.43;;;4.97;;
19111;SDS011;9688;51.906;8.376;2023-09-08T00:08:00;7.33;;;5.00;;
19111;SDS011;9688;51.906;8.376;2023-09-08T00:10:46;7.47;;;4.80;;
19111;SDS011;9688;51.906;8.376;2023-09-08T00:13:33;5.47;;;4.63;;
19111;SDS011;9688;51.906;8.376;2023-09-08T00:16:19;7.30;;;4.43;;
19111;SDS011;9688;51.906;8.376;2023-09-08T00:19:05;9.57;;;4.73;;
19111;SDS011;9688;51.906;8.376;2023-09-08T00:21:50;7.03;;;4.67;;
19111;SDS011;9688;51.906;8.376;2023-09-08T00:24:37;8.13;;;4.53;;
19111;SDS011;9688;51.906;8.376;2023-09-08T00:27:22;6.70;;;4.97;;
19111;SDS011;9688;51.906;8.376;2023-09-08T00:30:10;7.73;;;5.10;;
19111;SDS011;9688;51.906;8.376;2023-09-08T00:32:57;5.60;;;4.53;;
19111;SDS011;9688;51.906;8.376;2023-09-08T00:35:44;5.97;;;4.77;;
19111;SDS011;9688;51.906;8.376;2023-09-08T00:38:30;6.83;;;4.63;;
19111;SDS011;9688;51.906;8.376;2023-09-08T00:41:16;10.87;;;4.57;;
19111;SDS011;9688;51.906;8.376;2023-09-08T00:44:02;9.30;;;4.73;;
19111;SDS011;9688;51.906;8.376;2023-09-08T00:46:50;7.13;;;4.70;;
19111;SDS011;9688;51.906;8.376;2023-09-08T00:49:35;6.17;;;4.70;;
19111;SDS011;9688;51.906;8.376;2023-09-08T00:52:21;8.10;;;4.33;;
19111;SDS011;9688;51.906;8.376;2023-09-08T00:55:07;5.53;;;4.70;;
19111;SDS011;9688;51.906;8.376;2023-09-08T00:57:54;8.33;;;4.80;;
19111;SDS011;9688;51.906;8.376;2023-09-08T01:00:40;6.23;;;4.43;;
19111;SDS011;9688;51.906;8.376;2023-09-08T01:03:27;7.10;;;4.47;;
19111;SDS011;9688;51.906;8.376;2023-09-08T01:06:13;5.37;;;4.47;;
19111;SDS011;9688;51.906;8.376;2023-09-08T01:09:01;8.00;;;5.20;;
19111;SDS011;9688;51.906;8.376;2023-09-08T01:11:48;6.37;;;4.73;;
19111;SDS011;9688;51.906;8.376;2023-09-08T01:14:33;8.93;;;4.80;;
19111;SDS011;9688;51.906;8.376;2023-09-08T01:17:19;8.07;;;5.60;;
19111;SDS011;9688;51.906;8.376;2023-09-08T01:20:08;5.63;;;4.70;;
19111;SDS011;9688;51.906;8.376;2023-09-08T01:23:01;9.07;;;5.07;;
19111;SDS011;9688;51.906;8.376;2023-09-08T01:25:59;10.50;;;5.37;;
19111;SDS011;9688;51.906;8.376;2023-09-08T01:28:50;5.33;;;4.50;;
19111;SDS011;9688;51.906;8.376;2023-09-08T01:31:37;7.97;;;5.23;;
19111;SDS011;9688;51.906;8.376;2023-09-08T01:34:23;7.13;;;4.90;;
19111;SDS011;9688;51.906;8.376;2023-09-08T01:37:09;6.83;;;4.90;;
19111;SDS011;9688;51.906;8.376;2023-09-08T01:39:55;7.90;;;4.80;;
19111;SDS011;9688;51.906;8.376;2023-09-08T01:42:42;6.83;;;5.10;;
19111;SDS011;9688;51.906;8.376;2023-09-08T01:45:28;6.77;;;5.07;;
19111;SDS011;9688;51.906;8.376;2023-09-08T01:48:14;8.40;;;5.20;;
19111;SDS011;9688;51.906;8.376;2023-09-08T01:51:00;6.13;;;5.37;;
19111;SDS011;9688;51.906;8.376;2023-09-08T01:53:46;8.10;;;5.57;;
19111;SDS011;9688;51.906;8.376;2023-09-08T01:56:31;8.33;;;5.10;;
19111;SDS011;9688;51.906;8.376;2023-09-08T01:59:19;9.03;;;4.83;;
19111;SDS011;9688;51.906;8.376;2023-09-08T02:02:05;6.47;;;4.97;;
19111;SDS011;9688;51.906;8.376;2023-09-08T02:04:50;11.93;;;5.50;;
19111;SDS011;9688;51.906;8.376;2023-09-08T02:07:36;7.13;;;5.23;;
19111;SDS011;9688;51.906;8.376;2023-09-08T02:10:22;8.60;;;5.67;;
19111;SDS011;9688;51.906;8.376;2023-09-08T02:13:08;6.07;;;5.03;;
19111;SDS011;9688;51.906;8.376;2023-09-08T02:15:56;8.67;;;5.33;;
19111;SDS011;9688;51.906;8.376;2023-09-08T02:18:41;6.57;;;5.10;;
19111;SDS011;9688;51.906;8.376;2023-09-08T02:21:28;7.87;;;5.97;;
19111;SDS011;9688;51.906;8.376;2023-09-08T02:24:14;10.57;;;5.77;;
19111;SDS011;9688;51.906;8.376;2023-09-08T02:27:00;10.60;;;5.50;;
19111;SDS011;9688;51.906;8.376;2023-09-08T02:29:46;6.43;;;5.13;;
19111;SDS011;9688;51.906;8.376;2023-09-08T02:32:34;8.47;;;5.13;;
19111;SDS011;9688;51.906;8.376;2023-09-08T02:35:20;5.67;;;5.07;;
19111;SDS011;9688;51.906;8.376;2023-09-08T02:38:06;7.70;;;4.93;;
19111;SDS011;9688;51.906;8.376;2023-09-08T02:40:52;7.63;;;5.00;;
19111;SDS011;9688;51.906;8.376;2023-09-08T02:43:38;7.30;;;4.90;;
19111;SDS011;9688;51.906;8.376;2023-09-08T02:46:23;9.73;;;5.27;;
19111;SDS011;9688;51.906;8.376;2023-09-08T02:49:10;5.87;;;5.00;;
19111;SDS011;9688;51.906;8.376;2023-09-08T02:51:58;7.63;;;4.80;;
19111;SDS011;9688;51.906;8.376;2023-09-08T02:54:44;6.43;;;5.03;;
19111;SDS011;9688;51.906;8.376;2023-09-08T02:57:29;8.67;;;5.60;;
19111;SDS011;9688;51.906;8.376;2023-09-08T03:00:15;6.37;;;5.30;;
19111;SDS011;9688;51.906;8.376;2023-09-08T03:03:01;6.73;;;5.43;;
19111;SDS011;9688;51.906;8.376;2023-09-08T03:05:49;6.27;;;4.87;;
19111;SDS011;9688;51.906;8.376;2023-09-08T03:08:40;6.67;;;5.10;;
19111;SDS011;9688;51.906;8.376;2023-09-08T03:11:26;7.20;;;5.17;;
19111;SDS011;9688;51.906;8.376;2023-09-08T03:14:13;7.57;;;5.20;;
19111;SDS011;9688;51.906;8.376;2023-09-08T03:16:59;13.70;;;5.70;;
19111;SDS011;9688;51.906;8.376;2023-09-08T03:19:44;8.87;;;5.17;;
19111;SDS011;9688;51.906;8.376;2023-09-08T03:22:32;7.67;;;5.10;;
19111;SDS011;9688;51.906;8.376;2023-09-08T03:25:18;6.87;;;5.57;;
19111;SDS011;9688;51.906;8.376;2023-09-08T03:28:05;8.73;;;5.30;;
19111;SDS011;9688;51.906;8.376;2023-09-08T03:30:51;7.53;;;5.53;;
19111;SDS011;9688;51.906;8.376;2023-09-08T03:33:36;7.20;;;5.27;;
19111;SDS011;9688;51.906;8.376;2023-09-08T03:36:23;8.00;;;4.80;;
19111;SDS011;9688;51.906;8.376;2023-09-08T03:39:10;9.43;;;5.90;;
19111;SDS011;9688;51.906;8.376;2023-09-08T03:41:56;6.77;;;5.27;;
19111;SDS011;9688;51.906;8.376;2023-09-08T03:44:42;6.47;;;4.93;;
19111;SDS011;9688;51.906;8.376;2023-09-08T03:47:28;8.50;;;5.17;;
19111;SDS011;9688;51.906;8.376;2023-09-08T03:50:14;7.00;;;5.57;;
19111;SDS011;9688;51.906;8.376;2023-09-08T03:53:00;7.13;;;5.30;;
19111;SDS011;9688;51.906;8.376;2023-09-08T03:55:47;5.73;;;5.10;;
19111;SDS011;9688;51.906;8.376;2023-09-08T03:58:33;9.63;;;5.77;;
19111;SDS011;9688;51.906;8.376;2023-09-08T04:01:19;6.87;;;5.33;;
19111;SDS011;9688;51.906;8.376;2023-09-08T04:04:05;7.67;;;5.33;;
19111;SDS011;9688;51.906;8.376;2023-09-08T04:06:51;7.83;;;5.77;;
19111;SDS011;9688;51.906;8.376;2023-09-08T04:09:37;9.93;;;5.67;;
19111;SDS011;9688;51.906;8.376;2023-09-08T04:12:24;9.03;;;5.60;;
19111;SDS011;9688;51.906;8.376;2023-09-08T04:15:10;6.97;;;5.13;;
19111;SDS011;9688;51.906;8.376;2023-09-08T04:17:56;5.60;;;4.97;;
19111;SDS011;9688;51.906;8.376;2023-09-08T04:20:42;9.47;;;5.43;;
19111;SDS011;9688;51.906;8.376;2023-09-08T04:23:28;5.57;;;5.00;;
19111;SDS011;9688;51.906;8.376;2023-09-08T04:26:14;6.20;;;5.20;;
19111;SDS011;9688;51.906;8.376;2023-09-08T04:29:01;8.27;;;5.67;;
19111;SDS011;9688;51.906;8.376;2023-09-08T04:31:47;8.27;;;5.77;;
19111;SDS011;9688;51.906;8.376;2023-09-08T04:34:32;8.73;;;5.50;;
19111;SDS011;9688;51.906;8.376;2023-09-08T04:37:18;7.70;;;5.47;;
19111;SDS011;9688;51.906;8.376;2023-09-08T04:40:06;11.17;;;5.60;;
19111;SDS011;9688;51.906;8.376;2023-09-08T04:42:52;8.20;;;5.43;;
19111;SDS011;9688;51.906;8.376;2023-09-08T04:45:40;6.10;;;5.47;;
19111;SDS011;9688;51.906;8.376;2023-09-08T04:48:26;7.23;;;5.57;;
19111;SDS011;9688;51.906;8.376;2023-09-08T04:51:12;7.77;;;5.53;;
19111;SDS011;9688;51.906;8.376;2023-09-08T04:53:57;8.37;;;5.60;;
19111;SDS011;9688;51.906;8.376;2023-09-08T04:56:43;10.60;;;5.47;;
19111;SDS011;9688;51.906;8.376;2023-09-08T04:59:29;6.90;;;5.47;;
19111;SDS011;9688;51.906;8.376;2023-09-08T05:02:17;10.13;;;6.33;;
19111;SDS011;9688;51.906;8.376;2023-09-08T05:05:04;12.57;;;7.23;;
19111;SDS011;9688;51.906;8.376;2023-09-08T05:07:50;12.43;;;6.37;;
19111;SDS011;9688;51.906;8.376;2023-09-08T05:10:39;12.97;;;5.87;;
19111;SDS011;9688;51.906;8.376;2023-09-08T05:13:25;14.40;;;6.43;;
19111;SDS011;9688;51.906;8.376;2023-09-08T05:16:12;13.97;;;6.70;;
19111;SDS011;9688;51.906;8.376;2023-09-08T05:19:01;11.20;;;6.67;;
19111;SDS011;9688;51.906;8.376;2023-09-08T05:21:49;9.03;;;5.83;;
19111;SDS011;9688;51.906;8.376;2023-09-08T05:24:36;12.37;;;6.20;;
19111;SDS011;9688;51.906;8.376;2023-09-08T05:27:22;10.97;;;5.97;;
19111;SDS011;9688;51.906;8.376;2023-09-08T05:30:08;10.57;;;5.87;;
19111;SDS011;9688;51.906;8.376;2023-09-08T05:32:54;8.67;;;5.37;;
19111;SDS011;9688;51.906;8.376;2023-09-08T05:35:44;10.93;;;5.90;;
19111;SDS011;9688;51.906;8.376;2023-09-08T05:38:31;9.60;;;5.23;;
19111;SDS011;9688;51.906;8.376;2023-09-08T05:41:17;8.10;;;6.20;;
19111;SDS011;9688;51.906;8.376;2023-09-08T05:44:04;8.03;;;5.40;;
19111;SDS011;9688;51.906;8.376;2023-09-08T05:46:51;9.23;;;5.43;;
19111;SDS011;9688;51.906;8.376;2023-09-08T05:49:41;7.10;;;5.73;;
19111;SDS011;9688;51.906;8.376;2023-09-08T05:52:29;12.83;;;8.50;;
19111;SDS011;9688;51.906;8.376;2023-09-08T05:55:17;10.60;;;6.40;;
19111;SDS011;9688;51.906;8.376;2023-09-08T05:58:03;7.93;;;5.70;;
19111;SDS011;9688;51.906;8.376;2023-09-08T06:00:51;7.43;;;5.27;;
19111;SDS011;9688;51.906;8.376;2023-09-08T06:03:37;5.93;;;4.77;;
19111;SDS011;9688;51.906;8.376;2023-09-08T06:06:23;8.17;;;5.57;;
19111;SDS011;9688;51.906;8.376;2023-09-08T06:09:11;8.43;;;5.60;;
19111;SDS011;9688;51.906;8.376;2023-09-08T06:11:59;8.33;;;5.33;;
19111;SDS011;9688;51.906;8.376;2023-09-08T06:14:45;9.80;;;5.30;;
19111;SDS011;9688;51.906;8.376;2023-09-08T06:17:31;8.83;;;5.47;;
19111;SDS011;9688;51.906;8.376;2023-09-08T06:20:17;8.47;;;5.17;;
19111;SDS011;9688;51.906;8.376;2023-09-08T06:23:03;11.53;;;4.80;;
19111;SDS011;9688;51.906;8.376;2023-09-08T06:25:50;8.90;;;5.37;;
19111;SDS011;9688;51.906;8.376;2023-09-08T06:28:37;7.70;;;4.80;;
19111;SDS011;9688;51.906;8.376;2023-09-08T06:31:26;6.67;;;5.10;;
19111;SDS011;9688;51.906;8.376;2023-09-08T06:34:13;8.70;;;5.20;;
19111;SDS011;9688;51.906;8.376;2023-09-08T06:37:00;7.07;;;5.57;;
19111;SDS011;9688;51.906;8.376;2023-09-08T06:39:46;5.53;;;5.00;;
19111;SDS011;9688;51.906;8.376;2023-09-08T06:42:34;7.87;;;5.23;;
19111;SDS011;9688;51.906;8.376;2023-09-08T06:45:20;7.90;;;4.70;;
19111;SDS011;9688;51.906;8.376;2023-09-08T06:48:06;11.50;;;5.47;;
19111;SDS011;9688;51.906;8.376;2023-09-08T06:50:52;8.60;;;5.20;;
19111;SDS011;9688;51.906;8.376;2023-09-08T06:53:42;7.77;;;5.10;;
19111;SDS011;9688;51.906;8.376;2023-09-08T06:56:29;7.17;;;5.20;;
19111;SDS011;9688;51.906;8.376;2023-09-08T06:59:18;8.00;;;5.33;;
19111;SDS011;9688;51.906;8.376;2023-09-08T07:02:06;8.13;;;5.00;;
19111;SDS011;9688;51.906;8.376;2023-09-08T07:04:53;9.13;;;5.10;;
19111;SDS011;9688;51.906;8.376;2023-09-08T07:07:39;7.27;;;5.20;;
19111;SDS011;9688;51.906;8.376;2023-09-08T07:10:26;6.10;;;4.73;;
19111;SDS011;9688;51.906;8.376;2023-09-08T07:13:12;5.40;;;4.90;;
19111;SDS011;9688;51.906;8.376;2023-09-08T07:16:00;9.17;;;5.20;;
19111;SDS011;9688;51.906;8.376;2023-09-08T07:18:46;6.03;;;4.93;;
19111;SDS011;9688;51.906;8.376;2023-09-08T07:21:34;8.37;;;5.00;;
19111;SDS011;9688;51.906;8.376;2023-09-08T07:24:21;7.17;;;4.93;;
19111;SDS011;9688;51.906;8.376;2023-09-08T07:27:08;5.23;;;4.73;;
19111;SDS011;9688;51.906;8.376;2023-09-08T07:29:54;7.53;;;5.00;;
19111;SDS011;9688;51.906;8.376;2023-09-08T07:32:42;6.78;;;5.03;;
19111;SDS011;9688;51.906;8.376;2023-09-08T07:35:28;7.50;;;4.97;;
19111;SDS011;9688;51.906;8.376;2023-09-08T07:38:14;9.30;;;5.10;;
19111;SDS011;9688;51.906;8.376;2023-09-08T07:41:00;7.15;;;4.55;;
19111;SDS011;9688;51.906;8.376;2023-09-08T07:43:47;6.40;;;4.90;;
19111;SDS011;9688;51.906;8.376;2023-09-08T07:46:35;6.88;;;5.18;;
19111;SDS011;9688;51.906;8.376;2023-09-08T07:49:23;6.57;;;5.88;;
19111;SDS011;9688;51.906;8.376;2023-09-08T07:52:08;6.45;;;4.32;;
19111;SDS011;9688;51.906;8.376;2023-09-08T07:54:54;8.82;;;5.07;;
19111;SDS011;9688;51.906;8.376;2023-09-08T07:57:41;9.48;;;5.03;;
19111;SDS011;9688;51.906;8.376;2023-09-08T08:00:27;7.47;;;5.30;;
19111;SDS011;9688;51.906;8.376;2023-09-08T08:03:12;8.63;;;4.78;;
19111;SDS011;9688;51.906;8.376;2023-09-08T08:06:00;8.45;;;5.05;;
19111;SDS011;9688;51.906;8.376;2023-09-08T08:08:46;9.15;;;5.03;;
19111;SDS011;9688;51.906;8.376;2023-09-08T08:11:32;10.85;;;4.88;;
19111;SDS011;9688;51.906;8.376;2023-09-08T08:14:18;6.43;;;4.60;;
19111;SDS011;9688;51.906;8.376;2023-09-08T08:17:04;7.65;;;4.72;;
19111;SDS011;9688;51.906;8.376;2023-09-08T08:19:50;10.05;;;5.20;;
19111;SDS011;9688;51.906;8.376;2023-09-08T08:22:37;5.88;;;5.28;;
19111;SDS011;9688;51.906;8.376;2023-09-08T08:25:23;10.23;;;5.13;;
19111;SDS011;9688;51.906;8.376;2023-09-08T08:28:10;9.32;;;4.50;;
19111;SDS011;9688;51.906;8.376;2023-09-08T08:30:55;8.63;;;4.47;;
19111;SDS011;9688;51.906;8.376;2023-09-08T08:33:41;7.45;;;5.05;;
19111;SDS011;9688;51.906;8.376;2023-09-08T08:36:27;7.40;;;4.60;;
19111;SDS011;9688;51.906;8.376;2023-09-08T08:39:15;7.13;;;4.55;;
19111;SDS011;9688;51.906;8.376;2023-09-08T08:42:06;8.88;;;5.22;;
19111;SDS011;9688;51.906;8.376;2023-09-08T08:44:53;6.47;;;5.07;;
19111;SDS011;9688;51.906;8.376;2023-09-08T08:47:40;8.35;;;4.38;;
19111;SDS011;9688;51.906;8.376;2023-09-08T08:50:28;6.50;;;4.63;;
19111;SDS011;9688;51.906;8.376;2023-09-08T08:53:18;9.75;;;4.95;;
19111;SDS011;9688;51.906;8.376;2023-09-08T08:56:08;7.63;;;4.63;;
19111;SDS011;9688;51.906;8.376;2023-09-08T08:58:55;4.90;;;4.40;;
19111;SDS011;9688;51.906;8.376;2023-09-08T09:01:42;5.40;;;4.50;;
19111;SDS011;9688;51.906;8.376;2023-09-08T09:04:29;7.32;;;5.00;;
19111;SDS011;9688;51.906;8.376;2023-09-08T09:07:15;6.85;;;4.65;;
19111;SDS011;9688;51.906;8.376;2023-09-08T09:10:04;8.00;;;4.97;;
19111;SDS011;9688;51.906;8.376;2023-09-08T09:12:54;5.97;;;4.43;;
19111;SDS011;9688;51.906;8.376;2023-09-08T09:15:42;7.28;;;4.85;;
19111;SDS011;9688;51.906;8.376;2023-09-08T09:18:30;5.00;;;4.25;;
19111;SDS011;9688;51.906;8.376;2023-09-08T09:21:16;6.53;;;4.50;;
19111;SDS011;9688;51.906;8.376;2023-09-08T09:24:03;8.52;;;4.03;;
19111;SDS011;9688;51.906;8.376;2023-09-08T09:26:51;9.95;;;4.50;;
19111;SDS011;9688;51.906;8.376;2023-09-08T09:29:45;7.32;;;4.82;;
19111;SDS011;9688;51.906;8.376;2023-09-08T09:32:32;5.57;;;4.50;;
19111;SDS011;9688;51.906;8.376;2023-09-08T09:35:20;8.32;;;4.15;;
19111;SDS011;9688;51.906;8.376;2023-09-08T09:38:26;6.43;;;4.50;;
19111;SDS011;9688;51.906;8.376;2023-09-08T09:41:15;5.28;;;4.47;;
19111;SDS011;9688;51.906;8.376;2023-09-08T09:44:02;8.18;;;4.82;;
19111;SDS011;9688;51.906;8.376;2023-09-08T09:46:55;6.38;;;4.53;;
19111;SDS011;9688;51.906;8.376;2023-09-08T09:49:49;4.65;;;4.18;;
19111;SDS011;9688;51.906;8.376;2023-09-08T09:52:36;4.85;;;4.22;;
19111;SDS011;9688;51.906;8.376;2023-09-08T09:55:25;7.65;;;4.50;;
19111;SDS011;9688;51.906;8.376;2023-09-08T09:58:13;7.03;;;4.82;;
19111;SDS011;9688;51.906;8.376;2023-09-08T10:01:00;6.03;;;4.57;;
19111;SDS011;9688;51.906;8.376;2023-09-08T10:03:49;6.22;;;4.40;;
19111;SDS011;9688;51.906;8.376;2023-09-08T10:06:37;9.63;;;4.32;;
19111;SDS011;9688;51.906;8.376;2023-09-08T10:09:26;6.28;;;4.28;;
19111;SDS011;9688;51.906;8.376;2023-09-08T10:12:13;5.78;;;4.45;;
19111;SDS011;9688;51.906;8.376;2023-09-08T10:15:03;5.05;;;4.03;;
19111;SDS011;9688;51.906;8.376;2023-09-08T10:17:53;4.38;;;3.72;;
19111;SDS011;9688;51.906;8.376;2023-09-08T10:20:42;6.57;;;4.30;;
19111;SDS011;9688;51.906;8.376;2023-09-08T10:23:31;6.18;;;4.45;;
19111;SDS011;9688;51.906;8.376;2023-09-08T10:26:21;6.07;;;4.35;;
19111;SDS011;9688;51.906;8.376;2023-09-08T10:29:15;4.65;;;4.25;;
19111;SDS011;9688;51.906;8.376;2023-09-08T10:32:05;9.00;;;4.57;;
19111;SDS011;9688;51.906;8.376;2023-09-08T10:34:56;9.45;;;4.55;;
19111;SDS011;9688;51.906;8.376;2023-09-08T10:37:43;7.18;;;4.45;;
19111;SDS011;9688;51.906;8.376;2023-09-08T10:40:31;7.25;;;4.97;;
19111;SDS011;9688;51.906;8.376;2023-09-08T10:43:19;9.98;;;4.47;;
19111;SDS011;9688;51.906;8.376;2023-09-08T10:46:08;5.38;;;4.07;;
19111;SDS011;9688;51.906;8.376;2023-09-08T10:48:55;5.80;;;4.05;;
19111;SDS011;9688;51.906;8.376;2023-09-08T10:51:48;6.68;;;3.95;;
19111;SDS011;9688;51.906;8.376;2023-09-08T10:54:42;4.78;;;3.70;;
19111;SDS011;9688;51.906;8.376;2023-09-08T10:57:31;5.95;;;3.95;;
19111;SDS011;9688;51.906;8.376;2023-09-08T11:00:18;4.50;;;4.10;;
19111;SDS011;9688;51.906;8.376;2023-09-08T11:03:05;6.40;;;4.47;;
19111;SDS011;9688;51.906;8.376;2023-09-08T11:05:52;5.72;;;3.95;;
19111;SDS011;9688;51.906;8.376;2023-09-08T11:08:40;4.65;;;4.18;;
19111;SDS011;9688;51.906;8.376;2023-09-08T11:11:29;4.72;;;4.00;;
19111;SDS011;9688;51.906;8.376;2023-09-08T11:14:23;7.18;;;4.47;;
19111;SDS011;9688;51.906;8.376;2023-09-08T11:17:11;4.70;;;4.18;;
19111;SDS011;9688;51.906;8.376;2023-09-08T11:20:01;5.93;;;3.97;;
19111;SDS011;9688;51.906;8.376;2023-09-08T11:22:52;3.90;;;3.47;;
19111;SDS011;9688;51.906;8.376;2023-09-08T11:25:39;5.03;;;3.50;;
19111;SDS011;9688;51.906;8.376;2023-09-08T11:28:27;4.30;;;3.90;;
19111;SDS011;9688;51.906;8.376;2023-09-08T11:31:16;6.57;;;3.83;;
19111;SDS011;9688;51.906;8.376;2023-09-08T11:34:04;5.28;;;3.80;;
19111;SDS011;9688;51.906;8.376;2023-09-08T11:36:52;4.82;;;3.72;;
19111;SDS011;9688;51.906;8.376;2023-09-08T11:39:38;4.18;;;3.78;;
19111;SDS011;9688;51.906;8.376;2023-09-08T11:42:25;4.40;;;3.83;;
19111;SDS011;9688;51.906;8.376;2023-09-08T11:45:16;5.28;;;3.72;;
19111;SDS011;9688;51.906;8.376;2023-09-08T11:48:05;6.38;;;3.83;;
19111;SDS011;9688;51.906;8.376;2023-09-08T11:50:52;5.53;;;3.72;;
19111;SDS011;9688;51.906;8.376;2023-09-08T11:53:39;5.55;;;3.72;;
19111;SDS011;9688;51.906;8.376;2023-09-08T11:56:29;6.55;;;3.50;;
19111;SDS011;9688;51.906;8.376;2023-09-08T11:59:16;3.67;;;3.40;;
19111;SDS011;9688;51.906;8.376;2023-09-08T12:02:04;5.05;;;3.65;;
19111;SDS011;9688;51.906;8.376;2023-09-08T12:04:52;7.18;;;3.65;;
19111;SDS011;9688;51.906;8.376;2023-09-08T12:07:39;4.93;;;3.85;;
19111;SDS011;9688;51.906;8.376;2023-09-08T12:10:25;4.97;;;3.88;;
19111;SDS011;9688;51.906;8.376;2023-09-08T12:13:11;4.88;;;4.32;;
19111;SDS011;9688;51.906;8.376;2023-09-08T12:15:58;4.57;;;3.40;;
19111;SDS011;9688;51.906;8.376;2023-09-08T12:18:45;4.95;;;3.65;;
19111;SDS011;9688;51.906;8.376;2023-09-08T12:21:34;7.05;;;3.80;;
19111;SDS011;9688;51.906;8.376;2023-09-08T12:24:56;4.30;;;3.20;;
19111;SDS011;9688;51.906;8.376;2023-09-08T12:27:44;4.72;;;3.95;;
19111;SDS011;9688;51.906;8.376;2023-09-08T12:30:31;4.80;;;3.90;;
19111;SDS011;9688;51.906;8.376;2023-09-08T12:33:17;5.72;;;3.50;;
19111;SDS011;9688;51.906;8.376;2023-09-08T12:36:12;4.97;;;3.50;;
19111;SDS011;9688;51.906;8.376;2023-09-08T12:38:59;4.28;;;3.90;;
19111;SDS011;9688;51.906;8.376;2023-09-08T12:41:46;5.47;;;4.10;;
19111;SDS011;9688;51.906;8.376;2023-09-08T12:44:31;6.18;;;4.05;;
19111;SDS011;9688;51.906;8.376;2023-09-08T12:47:19;10.23;;;3.75;;
19111;SDS011;9688;51.906;8.376;2023-09-08T12:50:05;3.95;;;3.65;;
19111;SDS011;9688;51.906;8.376;2023-09-08T12:52:54;3.72;;;3.08;;
19111;SDS011;9688;51.906;8.376;2023-09-08T12:55:40;4.75;;;3.60;;
19111;SDS011;9688;51.906;8.376;2023-09-08T12:58:28;8.80;;;3.70;;
19111;SDS011;9688;51.906;8.376;2023-09-08T13:01:18;4.47;;;3.50;;
19111;SDS011;9688;51.906;8.376;2023-09-08T13:04:05;3.70;;;3.40;;
19111;SDS011;9688;51.906;8.376;2023-09-08T13:06:51;4.63;;;3.45;;
19111;SDS011;9688;51.906;8.376;2023-09-08T13:09:39;3.88;;;3.25;;
19111;SDS011;9688;51.906;8.376;2023-09-08T13:12:25;4.95;;;3.35;;
19111;SDS011;9688;51.906;8.376;2023-09-08T13:15:11;6.78;;;3.60;;
19111;SDS011;9688;51.906;8.376;2023-09-08T13:17:57;6.85;;;3.65;;
19111;SDS011;9688;51.906;8.376;2023-09-08T13:20:43;4.10;;;3.45;;
19111;SDS011;9688;51.906;8.376;2023-09-08T13:23:29;6.43;;;4.15;;
19111;SDS011;9688;51.906;8.376;2023-09-08T13:26:16;4.13;;;3.72;;
19111;SDS011;9688;51.906;8.376;2023-09-08T13:29:03;5.30;;;3.80;;
19111;SDS011;9688;51.906;8.376;2023-09-08T13:31:49;5.43;;;3.42;;
19111;SDS011;9688;51.906;8.376;2023-09-08T13:34:35;4.00;;;3.70;;
19111;SDS011;9688;51.906;8.376;2023-09-08T13:37:22;4.07;;;3.55;;
19111;SDS011;9688;51.906;8.376;2023-09-08T13:40:09;3.97;;;3.65;;
19111;SDS011;9688;51.906;8.376;2023-09-08T13:43:00;5.00;;;3.90;;
19111;SDS011;9688;51.906;8.376;2023-09-08T13:45:57;6.90;;;4.15;;
19111;SDS011;9688;51.906;8.376;2023-09-08T13:48:44;3.90;;;3.60;;
19111;SDS011;9688;51.906;8.376;2023-09-08T13:51:30;6.05;;;3.85;;
19111;SDS011;9688;51.906;8.376;2023-09-08T13:54:16;5.30;;;4.10;;
19111;SDS011;9688;51.906;8.376;2023-09-08T13:57:03;5.10;;;3.45;;
19111;SDS011;9688;51.906;8.376;2023-09-08T13:59:51;5.60;;;4.03;;
19111;SDS011;9688;51.906;8.376;2023-09-08T14:02:38;4.47;;;3.78;;
19111;SDS011;9688;51.906;8.376;2023-09-08T14:05:24;4.78;;;3.38;;
19111;SDS011;9688;51.906;8.376;2023-09-08T14:08:10;8.63;;;3.47;;
19111;SDS011;9688;51.906;8.376;2023-09-08T14:10:56;6.55;;;3.47;;
19111;SDS011;9688;51.906;8.376;2023-09-08T14:13:42;4.07;;;3.67;;
19111;SDS011;9688;51.906;8.376;2023-09-08T14:16:30;4.60;;;4.13;;
19111;SDS011;9688;51.906;8.376;2023-09-08T14:19:16;4.10;;;3.58;;
19111;SDS011;9688;51.906;8.376;2023-09-08T14:22:02;7.95;;;4.00;;
19111;SDS011;9688;51.906;8.376;2023-09-08T14:24:48;4.65;;;4.03;;
19111;SDS011;9688;51.906;8.376;2023-09-08T14:27:34;5.70;;;3.72;;
19111;SDS011;9688;51.906;8.376;2023-09-08T14:30:20;8.15;;;4.03;;
19111;SDS011;9688;51.906;8.376;2023-09-08T14:33:12;5.20;;;3.78;;
19111;SDS011;9688;51.906;8.376;2023-09-08T14:35:58;5.45;;;3.88;;
19111;SDS011;9688;51.906;8.376;2023-09-08T14:38:44;4.45;;;4.05;;
19111;SDS011;9688;51.906;8.376;2023-09-08T14:41:30;7.35;;;3.70;;
19111;SDS011;9688;51.906;8.376;2023-09-08T14:44:17;4.68;;;3.75;;
19111;SDS011;9688;51.906;8.376;2023-09-08T14:47:04;5.93;;;3.88;;
19111;SDS011;9688;51.906;8.376;2023-09-08T14:49:55;8.35;;;4.25;;
19111;SDS011;9688;51.906;8.376;2023-09-08T14:52:41;5.45;;;4.28;;
19111;SDS011;9688;51.906;8.376;2023-09-08T14:55:27;5.28;;;4.10;;
19111;SDS011;9688;51.906;8.376;2023-09-08T14:58:14;7.63;;;4.00;;
19111;SDS011;9688;51.906;8.376;2023-09-08T15:01:01;4.82;;;3.85;;
19111;SDS011;9688;51.906;8.376;2023-09-08T15:03:51;5.72;;;4.07;;
19111;SDS011;9688;51.906;8.376;2023-09-08T15:06:42;5.30;;;4.10;;
19111;SDS011;9688;51.906;8.376;2023-09-08T15:09:29;6.15;;;4.00;;
19111;SDS011;9688;51.906;8.376;2023-09-08T15:12:16;9.68;;;4.03;;
19111;SDS011;9688;51.906;8.376;2023-09-08T15:15:03;11.45;;;4.00;;
19111;SDS011;9688;51.906;8.376;2023-09-08T15:17:50;5.22;;;3.97;;
19111;SDS011;9688;51.906;8.376;2023-09-08T15:20:37;5.65;;;4.22;;
19111;SDS011;9688;51.906;8.376;2023-09-08T15:23:31;5.93;;;3.97;;
19111;SDS011;9688;51.906;8.376;2023-09-08T15:26:17;5.88;;;4.13;;
19111;SDS011;9688;51.906;8.376;2023-09-08T15:29:03;5.18;;;4.07;;
19111;SDS011;9688;51.906;8.376;2023-09-08T15:31:49;4.68;;;4.10;;
19111;SDS011;9688;51.906;8.376;2023-09-08T15:34:36;7.13;;;4.10;;
19111;SDS011;9688;51.906;8.376;2023-09-08T15:37:27;5.45;;;3.53;;
19111;SDS011;9688;51.906;8.376;2023-09-08T15:40:18;7.43;;;3.97;;
19111;SDS011;9688;51.906;8.376;2023-09-08T15:43:12;6.07;;;3.97;;
19111;SDS011;9688;51.906;8.376;2023-09-08T15:45:58;6.95;;;4.20;;
19111;SDS011;9688;51.906;8.376;2023-09-08T15:48:44;4.40;;;4.00;;
19111;SDS011;9688;51.906;8.376;2023-09-08T15:51:31;5.18;;;4.53;;
19111;SDS011;9688;51.906;8.376;2023-09-08T15:54:17;7.50;;;3.95;;
19111;SDS011;9688;51.906;8.376;2023-09-08T15:57:04;4.15;;;3.85;;
19111;SDS011;9688;51.906;8.376;2023-09-08T15:59:51;8.88;;;4.20;;
19111;SDS011;9688;51.906;8.376;2023-09-08T16:02:37;5.70;;;4.15;;
19111;SDS011;9688;51.906;8.376;2023-09-08T16:05:24;8.82;;;4.35;;
19111;SDS011;9688;51.906;8.376;2023-09-08T16:08:13;7.15;;;4.50;;
19111;SDS011;9688;51.906;8.376;2023-09-08T16:10:59;6.78;;;3.67;;
19111;SDS011;9688;51.906;8.376;2023-09-08T16:13:47;4.63;;;4.00;;
19111;SDS011;9688;51.906;8.376;2023-09-08T16:16:33;10.75;;;4.00;;
19111;SDS011;9688;51.906;8.376;2023-09-08T16:19:23;5.18;;;3.75;;
19111;SDS011;9688;51.906;8.376;2023-09-08T16:22:09;4.53;;;3.65;;
19111;SDS011;9688;51.906;8.376;2023-09-08T16:24:56;4.30;;;4.00;;
19111;SDS011;9688;51.906;8.376;2023-09-08T16:27:42;5.97;;;4.03;;
19111;SDS011;9688;51.906;8.376;2023-09-08T16:30:30;5.25;;;4.20;;
19111;SDS011;9688;51.906;8.376;2023-09-08T16:33:16;4.45;;;3.95;;
19111;SDS011;9688;51.906;8.376;2023-09-08T16:36:02;5.38;;;3.88;;
19111;SDS011;9688;51.906;8.376;2023-09-08T16:38:48;7.47;;;3.92;;
19111;SDS011;9688;51.906;8.376;2023-09-08T16:41:37;5.57;;;4.40;;
19111;SDS011;9688;51.906;8.376;2023-09-08T16:44:23;8.05;;;3.90;;
19111;SDS011;9688;51.906;8.376;2023-09-08T16:47:11;8.32;;;4.28;;
19111;SDS011;9688;51.906;8.376;2023-09-08T16:49:57;5.65;;;4.20;;
19111;SDS011;9688;51.906;8.376;2023-09-08T16:52:47;9.02;;;4.30;;
19111;SDS011;9688;51.906;8.376;2023-09-08T16:55:36;5.72;;;3.85;;
19111;SDS011;9688;51.906;8.376;2023-09-08T16:58:22;7.53;;;4.43;;
19111;SDS011;9688;51.906;8.376;2023-09-08T17:01:08;6.50;;;3.90;;
19111;SDS011;9688;51.906;8.376;2023-09-08T17:03:59;6.38;;;4.18;;